sensor_id;sensor_type;location;lat;lon;timestamp;P1;durP1;ratioP1;P2;durP2;ratioP2
66575;SDS011;53428;47.686;16.584;2023-03-01T00:01:52;45.40;;;19.05;;
66575;SDS011;53428;47.686;16.584;2023-03-01T00:06:51;38.75;;;18.10;;
66575;SDS011;53428;47.686;16.584;2023-03-01T00:11:50;44.25;;;16.77;;
66575;SDS011;53428;47.686;16.584;2023-03-01T00:16:50;35.28;;;17.05;;
66575;SDS011;53428;47.686;16.584;2023-03-01T00:21:49;31.33;;;15.52;;
66575;SDS011;53428;47.686;16.584;2023-03-01T00:26:52;29.73;;;13.40;;
66575;SDS011;53428;47.686;16.584;2023-03-01T00:31:54;28.70;;;15.93;;
66575;SDS011;53428;47.686;16.584;2023-03-01T00:36:53;27.25;;;13.70;;
66575;SDS011;53428;47.686;16.584;2023-03-01T00:41:52;43.95;;;17.95;;
66575;SDS011;53428;47.686;16.584;2023-03-01T00:46:51;38.47;;;17.05;;
66575;SDS011;53428;47.686;16.584;2023-03-01T00:51:51;36.25;;;16.67;;
66575;SDS011;53428;47.686;16.584;2023-03-01T00:56:50;44.83;;;16.90;;
66575;SDS011;53428;47.686;16.584;2023-03-01T01:01:49;40.55;;;18.02;;
66575;SDS011;53428;47.686;16.584;2023-03-01T01:06:48;37.67;;;17.42;;
66575;SDS011;53428;47.686;16.584;2023-03-01T01:11:48;29.80;;;15.27;;
66575;SDS011;53428;47.686;16.584;2023-03-01T01:16:49;28.67;;;14.68;;
66575;SDS011;53428;47.686;16.584;2023-03-01T01:21:48;27.77;;;14.32;;
66575;SDS011;53428;47.686;16.584;2023-03-01T01:26:48;28.65;;;14.93;;
66575;SDS011;53428;47.686;16.584;2023-03-01T01:31:47;27.60;;;14.07;;
66575;SDS011;53428;47.686;16.584;2023-03-01T01:36:48;27.80;;;13.95;;
66575;SDS011;53428;47.686;16.584;2023-03-01T01:41:48;27.52;;;14.75;;
66575;SDS011;53428;47.686;16.584;2023-03-01T01:51:51;28.90;;;14.10;;
66575;SDS011;53428;47.686;16.584;2023-03-01T01:57:00;32.45;;;14.75;;
66575;SDS011;53428;47.686;16.584;2023-03-01T02:02:03;30.10;;;14.95;;
66575;SDS011;53428;47.686;16.584;2023-03-01T02:07:05;29.77;;;15.23;;
66575;SDS011;53428;47.686;16.584;2023-03-01T02:12:12;30.95;;;14.73;;
66575;SDS011;53428;47.686;16.584;2023-03-01T02:17:16;28.08;;;14.32;;
66575;SDS011;53428;47.686;16.584;2023-03-01T02:22:32;30.52;;;15.52;;
66575;SDS011;53428;47.686;16.584;2023-03-01T02:27:37;28.08;;;14.10;;
66575;SDS011;53428;47.686;16.584;2023-03-01T02:32:42;29.88;;;13.98;;
66575;SDS011;53428;47.686;16.584;2023-03-01T02:37:41;28.25;;;14.43;;
66575;SDS011;53428;47.686;16.584;2023-03-01T02:42:51;23.92;;;13.88;;
66575;SDS011;53428;47.686;16.584;2023-03-01T02:47:54;29.67;;;14.13;;
66575;SDS011;53428;47.686;16.584;2023-03-01T02:53:08;21.35;;;12.73;;
66575;SDS011;53428;47.686;16.584;2023-03-01T02:58:29;26.15;;;14.85;;
66575;SDS011;53428;47.686;16.584;2023-03-01T03:03:28;28.85;;;14.60;;
66575;SDS011;53428;47.686;16.584;2023-03-01T03:08:27;30.55;;;15.32;;
66575;SDS011;53428;47.686;16.584;2023-03-01T03:13:27;25.65;;;12.70;;
66575;SDS011;53428;47.686;16.584;2023-03-01T03:18:27;31.15;;;14.48;;
66575;SDS011;53428;47.686;16.584;2023-03-01T03:23:26;31.30;;;14.27;;
66575;SDS011;53428;47.686;16.584;2023-03-01T03:28:25;30.98;;;16.35;;
66575;SDS011;53428;47.686;16.584;2023-03-01T03:33:24;33.17;;;15.10;;
66575;SDS011;53428;47.686;16.584;2023-03-01T03:38:24;24.52;;;14.43;;
66575;SDS011;53428;47.686;16.584;2023-03-01T03:43:23;30.95;;;14.63;;
66575;SDS011;53428;47.686;16.584;2023-03-01T03:48:23;31.92;;;15.13;;
66575;SDS011;53428;47.686;16.584;2023-03-01T03:53:23;30.45;;;16.95;;
66575;SDS011;53428;47.686;16.584;2023-03-01T03:58:24;30.45;;;15.63;;
66575;SDS011;53428;47.686;16.584;2023-03-01T04:03:25;23.55;;;14.02;;
66575;SDS011;53428;47.686;16.584;2023-03-01T04:08:25;35.17;;;15.50;;
66575;SDS011;53428;47.686;16.584;2023-03-01T04:13:25;31.98;;;14.60;;
66575;SDS011;53428;47.686;16.584;2023-03-01T04:18:24;32.88;;;16.70;;
66575;SDS011;53428;47.686;16.584;2023-03-01T04:23:25;34.28;;;16.10;;
66575;SDS011;53428;47.686;16.584;2023-03-01T04:28:28;36.92;;;19.88;;
66575;SDS011;53428;47.686;16.584;2023-03-01T04:33:29;36.33;;;16.60;;
66575;SDS011;53428;47.686;16.584;2023-03-01T04:38:29;36.05;;;17.80;;
66575;SDS011;53428;47.686;16.584;2023-03-01T04:43:28;47.58;;;21.92;;
66575;SDS011;53428;47.686;16.584;2023-03-01T04:48:28;40.13;;;19.85;;
66575;SDS011;53428;47.686;16.584;2023-03-01T04:53:28;41.55;;;19.70;;
66575;SDS011;53428;47.686;16.584;2023-03-01T04:58:28;41.13;;;20.50;;
66575;SDS011;53428;47.686;16.584;2023-03-01T05:03:27;40.03;;;20.25;;
66575;SDS011;53428;47.686;16.584;2023-03-01T05:08:27;38.97;;;19.73;;
66575;SDS011;53428;47.686;16.584;2023-03-01T05:13:26;35.40;;;18.05;;
66575;SDS011;53428;47.686;16.584;2023-03-01T05:18:29;37.97;;;19.02;;
66575;SDS011;53428;47.686;16.584;2023-03-01T05:23:30;40.63;;;20.50;;
66575;SDS011;53428;47.686;16.584;2023-03-01T05:28:30;39.75;;;17.70;;
66575;SDS011;53428;47.686;16.584;2023-03-01T05:33:29;38.15;;;21.20;;
66575;SDS011;53428;47.686;16.584;2023-03-01T05:38:29;41.55;;;18.17;;
66575;SDS011;53428;47.686;16.584;2023-03-01T05:43:31;42.20;;;20.33;;
66575;SDS011;53428;47.686;16.584;2023-03-01T05:48:33;41.15;;;22.17;;
66575;SDS011;53428;47.686;16.584;2023-03-01T05:53:32;43.75;;;22.58;;
66575;SDS011;53428;47.686;16.584;2023-03-01T05:58:31;40.42;;;21.58;;
66575;SDS011;53428;47.686;16.584;2023-03-01T06:03:30;47.17;;;22.48;;
66575;SDS011;53428;47.686;16.584;2023-03-01T06:08:30;56.53;;;23.92;;
66575;SDS011;53428;47.686;16.584;2023-03-01T06:13:29;46.45;;;21.50;;
66575;SDS011;53428;47.686;16.584;2023-03-01T06:18:28;71.50;;;30.40;;
66575;SDS011;53428;47.686;16.584;2023-03-01T06:23:27;50.72;;;22.67;;
66575;SDS011;53428;47.686;16.584;2023-03-01T06:28:26;49.63;;;22.10;;
66575;SDS011;53428;47.686;16.584;2023-03-01T06:33:26;51.53;;;22.77;;
66575;SDS011;53428;47.686;16.584;2023-03-01T06:38:25;47.03;;;23.58;;
66575;SDS011;53428;47.686;16.584;2023-03-01T06:43:24;45.65;;;21.65;;
66575;SDS011;53428;47.686;16.584;2023-03-01T06:48:24;47.53;;;22.08;;
66575;SDS011;53428;47.686;16.584;2023-03-01T06:53:23;48.63;;;23.13;;
66575;SDS011;53428;47.686;16.584;2023-03-01T06:58:23;56.60;;;23.63;;
66575;SDS011;53428;47.686;16.584;2023-03-01T07:03:22;48.97;;;23.08;;
66575;SDS011;53428;47.686;16.584;2023-03-01T07:08:22;65.85;;;27.50;;
66575;SDS011;53428;47.686;16.584;2023-03-01T07:13:21;52.38;;;25.38;;
66575;SDS011;53428;47.686;16.584;2023-03-01T07:18:21;46.72;;;23.13;;
66575;SDS011;53428;47.686;16.584;2023-03-01T07:23:20;41.70;;;21.75;;
66575;SDS011;53428;47.686;16.584;2023-03-01T07:28:19;42.30;;;20.83;;
66575;SDS011;53428;47.686;16.584;2023-03-01T07:33:19;37.03;;;20.02;;
66575;SDS011;53428;47.686;16.584;2023-03-01T07:38:18;45.33;;;21.20;;
66575;SDS011;53428;47.686;16.584;2023-03-01T07:43:17;39.08;;;19.80;;
66575;SDS011;53428;47.686;16.584;2023-03-01T07:48:17;38.83;;;22.40;;
66575;SDS011;53428;47.686;16.584;2023-03-01T07:53:16;52.75;;;23.85;;
66575;SDS011;53428;47.686;16.584;2023-03-01T07:58:15;63.40;;;27.00;;
66575;SDS011;53428;47.686;16.584;2023-03-01T08:03:15;61.67;;;31.15;;
66575;SDS011;53428;47.686;16.584;2023-03-01T08:08:14;51.90;;;24.45;;
66575;SDS011;53428;47.686;16.584;2023-03-01T08:13:13;48.40;;;22.48;;
66575;SDS011;53428;47.686;16.584;2023-03-01T08:18:12;47.47;;;22.42;;
66575;SDS011;53428;47.686;16.584;2023-03-01T08:23:12;46.50;;;22.63;;
66575;SDS011;53428;47.686;16.584;2023-03-01T08:28:11;49.47;;;23.33;;
66575;SDS011;53428;47.686;16.584;2023-03-01T08:33:11;51.33;;;24.42;;
66575;SDS011;53428;47.686;16.584;2023-03-01T08:38:10;47.88;;;23.70;;
66575;SDS011;53428;47.686;16.584;2023-03-01T08:43:09;45.83;;;23.70;;
66575;SDS011;53428;47.686;16.584;2023-03-01T08:48:09;48.53;;;23.40;;
66575;SDS011;53428;47.686;16.584;2023-03-01T08:53:08;56.42;;;27.70;;
66575;SDS011;53428;47.686;16.584;2023-03-01T08:58:08;57.55;;;28.02;;
66575;SDS011;53428;47.686;16.584;2023-03-01T09:03:07;48.03;;;26.58;;
66575;SDS011;53428;47.686;16.584;2023-03-01T09:08:06;51.50;;;25.55;;
66575;SDS011;53428;47.686;16.584;2023-03-01T09:13:06;48.40;;;25.27;;
66575;SDS011;53428;47.686;16.584;2023-03-01T09:18:06;47.80;;;27.08;;
66575;SDS011;53428;47.686;16.584;2023-03-01T09:23:05;43.22;;;23.88;;
66575;SDS011;53428;47.686;16.584;2023-03-01T09:28:05;49.67;;;24.95;;
66575;SDS011;53428;47.686;16.584;2023-03-01T09:33:04;40.40;;;22.23;;
66575;SDS011;53428;47.686;16.584;2023-03-01T09:38:03;42.30;;;20.60;;
66575;SDS011;53428;47.686;16.584;2023-03-01T09:43:06;40.47;;;22.27;;
66575;SDS011;53428;47.686;16.584;2023-03-01T09:48:19;37.75;;;20.63;;
66575;SDS011;53428;47.686;16.584;2023-03-01T09:53:24;34.50;;;20.20;;
66575;SDS011;53428;47.686;16.584;2023-03-01T10:09:27;35.35;;;19.13;;
66575;SDS011;53428;47.686;16.584;2023-03-01T10:19:51;39.08;;;19.70;;
66575;SDS011;53428;47.686;16.584;2023-03-01T10:24:51;43.50;;;20.85;;
66575;SDS011;53428;47.686;16.584;2023-03-01T10:29:58;44.70;;;19.58;;
66575;SDS011;53428;47.686;16.584;2023-03-01T10:35:28;37.55;;;19.73;;
66575;SDS011;53428;47.686;16.584;2023-03-01T10:40:28;31.65;;;18.23;;
66575;SDS011;53428;47.686;16.584;2023-03-01T10:45:33;32.38;;;17.92;;
66575;SDS011;53428;47.686;16.584;2023-03-01T10:50:36;36.70;;;20.67;;
66575;SDS011;53428;47.686;16.584;2023-03-01T10:55:39;36.88;;;21.05;;
66575;SDS011;53428;47.686;16.584;2023-03-01T11:00:46;36.67;;;18.95;;
66575;SDS011;53428;47.686;16.584;2023-03-01T11:05:56;34.60;;;20.15;;
66575;SDS011;53428;47.686;16.584;2023-03-01T11:11:19;43.25;;;20.50;;
66575;SDS011;53428;47.686;16.584;2023-03-01T11:16:25;39.08;;;19.33;;
66575;SDS011;53428;47.686;16.584;2023-03-01T11:26:41;33.80;;;18.85;;
66575;SDS011;53428;47.686;16.584;2023-03-01T11:31:44;33.58;;;18.63;;
66575;SDS011;53428;47.686;16.584;2023-03-01T11:36:55;43.65;;;21.25;;
66575;SDS011;53428;47.686;16.584;2023-03-01T11:47:43;33.58;;;18.42;;
66575;SDS011;53428;47.686;16.584;2023-03-01T11:53:22;34.85;;;19.55;;
66575;SDS011;53428;47.686;16.584;2023-03-01T12:19:21;28.77;;;17.60;;
66575;SDS011;53428;47.686;16.584;2023-03-01T12:29:34;34.22;;;17.05;;
66575;SDS011;53428;47.686;16.584;2023-03-01T12:51:08;29.90;;;17.17;;
66575;SDS011;53428;47.686;16.584;2023-03-01T12:55:49;26.60;;;17.33;;
66575;SDS011;53428;47.686;16.584;2023-03-01T13:06:19;29.00;;;16.83;;
66575;SDS011;53428;47.686;16.584;2023-03-01T13:21:30;29.23;;;18.17;;
66575;SDS011;53428;47.686;16.584;2023-03-01T13:26:30;31.30;;;18.08;;
66575;SDS011;53428;47.686;16.584;2023-03-01T13:46:37;26.40;;;15.77;;
66575;SDS011;53428;47.686;16.584;2023-03-01T13:51:37;30.92;;;18.67;;
66575;SDS011;53428;47.686;16.584;2023-03-01T13:56:37;29.05;;;16.67;;
66575;SDS011;53428;47.686;16.584;2023-03-01T14:01:37;27.42;;;17.58;;
66575;SDS011;53428;47.686;16.584;2023-03-01T14:06:36;25.27;;;15.52;;
66575;SDS011;53428;47.686;16.584;2023-03-01T14:21:49;31.08;;;15.27;;
66575;SDS011;53428;47.686;16.584;2023-03-01T14:27:01;25.95;;;17.42;;
66575;SDS011;53428;47.686;16.584;2023-03-01T14:32:17;26.50;;;16.35;;
66575;SDS011;53428;47.686;16.584;2023-03-01T14:42:24;25.40;;;15.68;;
66575;SDS011;53428;47.686;16.584;2023-03-01T14:47:31;23.58;;;13.63;;
66575;SDS011;53428;47.686;16.584;2023-03-01T14:52:34;24.45;;;13.25;;
66575;SDS011;53428;47.686;16.584;2023-03-01T14:57:36;24.85;;;13.30;;
66575;SDS011;53428;47.686;16.584;2023-03-01T15:02:35;22.10;;;14.52;;
66575;SDS011;53428;47.686;16.584;2023-03-01T15:07:38;26.58;;;15.70;;
66575;SDS011;53428;47.686;16.584;2023-03-01T15:12:41;34.30;;;18.60;;
66575;SDS011;53428;47.686;16.584;2023-03-01T15:17:41;31.83;;;17.27;;
66575;SDS011;53428;47.686;16.584;2023-03-01T15:22:42;35.92;;;19.63;;
66575;SDS011;53428;47.686;16.584;2023-03-01T15:27:47;37.30;;;19.67;;
66575;SDS011;53428;47.686;16.584;2023-03-01T15:32:47;34.03;;;18.50;;
66575;SDS011;53428;47.686;16.584;2023-03-01T15:37:47;34.20;;;19.73;;
66575;SDS011;53428;47.686;16.584;2023-03-01T15:42:47;30.33;;;17.40;;
66575;SDS011;53428;47.686;16.584;2023-03-01T15:47:50;33.92;;;17.90;;
66575;SDS011;53428;47.686;16.584;2023-03-01T15:53:04;38.83;;;21.15;;
66575;SDS011;53428;47.686;16.584;2023-03-01T15:58:13;33.00;;;19.30;;
66575;SDS011;53428;47.686;16.584;2023-03-01T16:03:22;37.97;;;20.73;;
66575;SDS011;53428;47.686;16.584;2023-03-01T16:08:22;40.88;;;19.75;;
66575;SDS011;53428;47.686;16.584;2023-03-01T16:13:22;38.45;;;18.95;;
66575;SDS011;53428;47.686;16.584;2023-03-01T16:18:22;29.95;;;16.75;;
66575;SDS011;53428;47.686;16.584;2023-03-01T16:23:21;33.28;;;16.55;;
66575;SDS011;53428;47.686;16.584;2023-03-01T16:28:24;30.52;;;15.60;;
66575;SDS011;53428;47.686;16.584;2023-03-01T16:33:23;36.33;;;19.52;;
66575;SDS011;53428;47.686;16.584;2023-03-01T16:38:23;30.85;;;17.23;;
66575;SDS011;53428;47.686;16.584;2023-03-01T16:43:22;33.08;;;18.63;;
66575;SDS011;53428;47.686;16.584;2023-03-01T16:48:21;33.10;;;17.25;;
66575;SDS011;53428;47.686;16.584;2023-03-01T16:53:21;36.78;;;17.38;;
66575;SDS011;53428;47.686;16.584;2023-03-01T16:58:21;36.08;;;20.27;;
66575;SDS011;53428;47.686;16.584;2023-03-01T17:03:24;40.55;;;22.38;;
66575;SDS011;53428;47.686;16.584;2023-03-01T17:08:24;45.25;;;22.55;;
66575;SDS011;53428;47.686;16.584;2023-03-01T17:13:24;46.08;;;25.98;;
66575;SDS011;53428;47.686;16.584;2023-03-01T17:18:23;42.58;;;22.92;;
66575;SDS011;53428;47.686;16.584;2023-03-01T17:23:25;35.67;;;17.55;;
66575;SDS011;53428;47.686;16.584;2023-03-01T17:28:27;35.45;;;16.20;;
66575;SDS011;53428;47.686;16.584;2023-03-01T17:33:29;26.67;;;17.60;;
66575;SDS011;53428;47.686;16.584;2023-03-01T17:38:29;44.20;;;22.58;;
66575;SDS011;53428;47.686;16.584;2023-03-01T17:43:28;46.38;;;18.65;;
66575;SDS011;53428;47.686;16.584;2023-03-01T17:48:28;47.05;;;21.58;;
66575;SDS011;53428;47.686;16.584;2023-03-01T17:53:28;40.33;;;19.90;;
66575;SDS011;53428;47.686;16.584;2023-03-01T17:58:28;40.20;;;21.50;;
66575;SDS011;53428;47.686;16.584;2023-03-01T18:03:27;49.25;;;23.30;;
66575;SDS011;53428;47.686;16.584;2023-03-01T18:08:27;49.95;;;26.70;;
66575;SDS011;53428;47.686;16.584;2023-03-01T18:13:26;46.25;;;23.77;;
66575;SDS011;53428;47.686;16.584;2023-03-01T18:18:26;63.28;;;30.23;;
66575;SDS011;53428;47.686;16.584;2023-03-01T18:23:27;48.90;;;29.67;;
66575;SDS011;53428;47.686;16.584;2023-03-01T18:28:27;52.35;;;29.60;;
66575;SDS011;53428;47.686;16.584;2023-03-01T18:33:28;56.63;;;28.90;;
66575;SDS011;53428;47.686;16.584;2023-03-01T18:38:28;60.63;;;29.77;;
66575;SDS011;53428;47.686;16.584;2023-03-01T18:43:28;56.53;;;28.15;;
66575;SDS011;53428;47.686;16.584;2023-03-01T18:48:30;53.15;;;28.30;;
66575;SDS011;53428;47.686;16.584;2023-03-01T18:53:31;42.15;;;23.17;;
66575;SDS011;53428;47.686;16.584;2023-03-01T18:58:30;47.65;;;24.48;;
66575;SDS011;53428;47.686;16.584;2023-03-01T19:03:30;43.25;;;23.50;;
66575;SDS011;53428;47.686;16.584;2023-03-01T19:08:30;44.30;;;22.60;;
66575;SDS011;53428;47.686;16.584;2023-03-01T19:13:30;42.33;;;23.02;;
66575;SDS011;53428;47.686;16.584;2023-03-01T19:18:32;46.30;;;22.77;;
66575;SDS011;53428;47.686;16.584;2023-03-01T19:23:33;49.05;;;24.50;;
66575;SDS011;53428;47.686;16.584;2023-03-01T19:28:36;42.00;;;21.92;;
66575;SDS011;53428;47.686;16.584;2023-03-01T19:33:37;43.15;;;22.90;;
66575;SDS011;53428;47.686;16.584;2023-03-01T19:38:40;45.03;;;22.92;;
66575;SDS011;53428;47.686;16.584;2023-03-01T19:43:42;38.45;;;20.20;;
66575;SDS011;53428;47.686;16.584;2023-03-01T19:48:45;52.30;;;22.27;;
66575;SDS011;53428;47.686;16.584;2023-03-01T19:53:45;38.42;;;19.58;;
66575;SDS011;53428;47.686;16.584;2023-03-01T19:58:45;44.67;;;22.60;;
66575;SDS011;53428;47.686;16.584;2023-03-01T20:03:48;37.47;;;20.05;;
66575;SDS011;53428;47.686;16.584;2023-03-01T20:08:51;45.78;;;21.13;;
66575;SDS011;53428;47.686;16.584;2023-03-01T20:13:51;37.15;;;19.00;;
66575;SDS011;53428;47.686;16.584;2023-03-01T20:18:52;45.85;;;21.80;;
66575;SDS011;53428;47.686;16.584;2023-03-01T20:23:52;36.28;;;20.33;;
66575;SDS011;53428;47.686;16.584;2023-03-01T20:28:53;36.25;;;17.75;;
66575;SDS011;53428;47.686;16.584;2023-03-01T20:33:55;33.38;;;18.35;;
66575;SDS011;53428;47.686;16.584;2023-03-01T20:38:57;35.88;;;20.00;;
66575;SDS011;53428;47.686;16.584;2023-03-01T20:43:56;40.63;;;22.73;;
66575;SDS011;53428;47.686;16.584;2023-03-01T20:48:57;40.35;;;21.70;;
66575;SDS011;53428;47.686;16.584;2023-03-01T20:53:57;34.85;;;19.73;;
66575;SDS011;53428;47.686;16.584;2023-03-01T20:59:02;35.70;;;20.85;;
66575;SDS011;53428;47.686;16.584;2023-03-01T21:04:02;40.55;;;21.15;;
66575;SDS011;53428;47.686;16.584;2023-03-01T21:09:02;41.15;;;19.98;;
66575;SDS011;53428;47.686;16.584;2023-03-01T21:14:02;44.75;;;23.27;;
66575;SDS011;53428;47.686;16.584;2023-03-01T21:19:03;49.08;;;23.20;;
66575;SDS011;53428;47.686;16.584;2023-03-01T21:24:03;38.28;;;20.77;;
66575;SDS011;53428;47.686;16.584;2023-03-01T21:29:03;37.63;;;20.42;;
66575;SDS011;53428;47.686;16.584;2023-03-01T21:34:03;38.53;;;21.08;;
66575;SDS011;53428;47.686;16.584;2023-03-01T21:39:04;40.92;;;23.52;;
66575;SDS011;53428;47.686;16.584;2023-03-01T21:44:05;41.40;;;21.85;;
66575;SDS011;53428;47.686;16.584;2023-03-01T21:49:05;41.60;;;23.77;;
66575;SDS011;53428;47.686;16.584;2023-03-01T21:54:06;48.40;;;25.13;;
66575;SDS011;53428;47.686;16.584;2023-03-01T21:59:07;45.95;;;22.77;;
66575;SDS011;53428;47.686;16.584;2023-03-01T22:04:10;41.85;;;24.63;;
66575;SDS011;53428;47.686;16.584;2023-03-01T22:09:17;43.42;;;25.27;;
66575;SDS011;53428;47.686;16.584;2023-03-01T22:14:18;55.63;;;23.48;;
66575;SDS011;53428;47.686;16.584;2023-03-01T22:19:19;50.38;;;24.10;;
66575;SDS011;53428;47.686;16.584;2023-03-01T22:24:20;47.60;;;25.02;;
66575;SDS011;53428;47.686;16.584;2023-03-01T22:29:23;41.20;;;24.17;;
66575;SDS011;53428;47.686;16.584;2023-03-01T22:34:25;56.22;;;30.33;;
66575;SDS011;53428;47.686;16.584;2023-03-01T22:39:25;57.20;;;27.10;;
66575;SDS011;53428;47.686;16.584;2023-03-01T22:44:24;57.78;;;30.33;;
66575;SDS011;53428;47.686;16.584;2023-03-01T22:49:24;63.88;;;33.47;;
66575;SDS011;53428;47.686;16.584;2023-03-01T22:54:24;49.42;;;27.42;;
66575;SDS011;53428;47.686;16.584;2023-03-01T22:59:23;48.67;;;25.65;;
66575;SDS011;53428;47.686;16.584;2023-03-01T23:04:22;54.03;;;30.20;;
66575;SDS011;53428;47.686;16.584;2023-03-01T23:09:27;53.65;;;30.08;;
66575;SDS011;53428;47.686;16.584;2023-03-01T23:14:29;55.92;;;27.02;;
66575;SDS011;53428;47.686;16.584;2023-03-01T23:19:30;60.88;;;31.67;;
66575;SDS011;53428;47.686;16.584;2023-03-01T23:24:30;71.40;;;30.35;;
66575;SDS011;53428;47.686;16.584;2023-03-01T23:29:30;61.35;;;31.33;;
66575;SDS011;53428;47.686;16.584;2023-03-01T23:34:30;58.03;;;32.03;;
66575;SDS011;53428;47.686;16.584;2023-03-01T23:39:29;56.20;;;28.13;;
66575;SDS011;53428;47.686;16.584;2023-03-01T23:44:30;50.53;;;29.73;;
66575;SDS011;53428;47.686;16.584;2023-03-01T23:49:30;49.45;;;29.67;;
66575;SDS011;53428;47.686;16.584;2023-03-01T23:54:29;48.08;;;28.00;;
66575;SDS011;53428;47.686;16.584;2023-03-01T23:59:28;50.85;;;29.70;;
